RJSM(METAR)
08/24 02:00
METAR RJSM 231700Z 24004KT 9999 FEW003 SCT/// 21/19 Q1003 RMK 1ST003
A2964=
戻る
トップページへ戻る
IMOC Co,.Ltd.